Aeroporto :
LOGIN :

Iscrizione | Disclaimer

   EN    FR    IT 

 










Sommario :    VFR   VFR Marginale   IFR   IFR Intensivo   IFR Molto Intensivo
Visibilità : 
Base nubi : 
>= 8 km
>= 3000ft
5 / 8 km
1000 / 3000 ft
1500m / 5 km
500 / 1000 ft
800 / 1500m
200 / 500 ft
< 800m
< 200 ft
Simboli :   Temporali  Nebbia  Neve Forte  Precipitazioni Forti  Vento > 20 kt
SIGMETs :   Varie  Temporali  Ghiacco  Turbolenza  Onda orograficha  Ceneri Vulcaniche






- Altitudine del aeroporto : 297 ft
- Codice IATA : BBU


LRBS - Bucarest - Baneasa Aurel Vlaicu

ULTIMO METAR :
  • 031930Z 00000KT CAVOK 09/01 Q1015 NOSIG

METARs OBSOLETI :
  • 031900Z VRB01KT CAVOK 09/01 Q1014 NOSIG
  • 031830Z 31002KT CAVOK 11/01 Q1014 NOSIG
  • 031800Z 28001KT CAVOK 11/01 Q1014 NOSIG
  • 031730Z 27002KT CAVOK 12/01 Q1013 NOSIG
  • 031700Z 26004KT CAVOK 13/01 Q1013 NOSIG

TAF TAF LRBS
Valido dal 03 a 18 ore il 04 a 18 ore UTC


031700Z 0318/0418 24006KT CAVOK
BECMG 0405/0407 06012KT



MetMap, La meteo Aeronautica in un colpo d'occhio ! - Copyright ORBIFLY Dicembre 2007 - Disclaimer

ORBIFLY MET'MAP TEAM :

Programmazione e sviluppo : Alexandra Zaïnal
Concezione : Baudouin d'Aumeries
Aiuto per la programmazione : Marc-Olivier Méhu
Supporto tecnico e logistico : Manuel Goepfert
Aiuto per la traduzione : Arnaldo La Scala

Contatto : metmap@orbifly.com




FONTI E CREDITI :

   NOAA